sensor_id;sensor_type;location;lat;lon;timestamp;temperature;humidity
11824;DHT22;5969;50.780;7.726;2022-08-11T00:01:08;15.90;99.90
11824;DHT22;5969;50.780;7.726;2022-08-11T00:03:42;15.70;99.90
11824;DHT22;5969;50.780;7.726;2022-08-11T00:06:10;15.70;99.90
11824;DHT22;5969;50.780;7.726;2022-08-11T00:08:38;15.60;99.90
11824;DHT22;5969;50.780;7.726;2022-08-11T00:11:08;15.50;99.90
11824;DHT22;5969;50.780;7.726;2022-08-11T00:13:38;15.40;99.90
11824;DHT22;5969;50.780;7.726;2022-08-11T00:16:11;15.40;99.90
11824;DHT22;5969;50.780;7.726;2022-08-11T00:18:40;15.40;99.90
11824;DHT22;5969;50.780;7.726;2022-08-11T00:21:08;15.30;99.90
11824;DHT22;5969;50.780;7.726;2022-08-11T00:23:41;15.30;99.90
11824;DHT22;5969;50.780;7.726;2022-08-11T00:26:09;15.20;99.90
11824;DHT22;5969;50.780;7.726;2022-08-11T00:28:38;15.20;99.90
11824;DHT22;5969;50.780;7.726;2022-08-11T00:31:07;15.10;99.90
11824;DHT22;5969;50.780;7.726;2022-08-11T00:33:38;15.10;99.90
11824;DHT22;5969;50.780;7.726;2022-08-11T00:36:06;15.00;99.90
11824;DHT22;5969;50.780;7.726;2022-08-11T00:38:37;15.00;99.90
11824;DHT22;5969;50.780;7.726;2022-08-11T00:41:15;14.90;99.90
11824;DHT22;5969;50.780;7.726;2022-08-11T00:44:06;14.90;99.90
11824;DHT22;5969;50.780;7.726;2022-08-11T00:46:49;14.80;99.90
11824;DHT22;5969;50.780;7.726;2022-08-11T00:49:28;14.80;99.90
11824;DHT22;5969;50.780;7.726;2022-08-11T00:52:09;14.80;99.90
11824;DHT22;5969;50.780;7.726;2022-08-11T00:58:19;14.70;99.90
11824;DHT22;5969;50.780;7.726;2022-08-11T01:01:08;14.70;99.90
11824;DHT22;5969;50.780;7.726;2022-08-11T01:03:58;14.80;99.90
11824;DHT22;5969;50.780;7.726;2022-08-11T01:06:48;14.80;99.90
11824;DHT22;5969;50.780;7.726;2022-08-11T01:09:30;14.80;99.90
11824;DHT22;5969;50.780;7.726;2022-08-11T01:12:23;14.70;99.90
11824;DHT22;5969;50.780;7.726;2022-08-11T01:15:19;14.60;99.90
11824;DHT22;5969;50.780;7.726;2022-08-11T01:21:40;14.60;99.90
11824;DHT22;5969;50.780;7.726;2022-08-11T01:27:31;14.40;99.90
11824;DHT22;5969;50.780;7.726;2022-08-11T01:30:34;14.40;99.90
11824;DHT22;5969;50.780;7.726;2022-08-11T01:37:01;14.20;99.90
11824;DHT22;5969;50.780;7.726;2022-08-11T01:39:55;14.20;99.90
11824;DHT22;5969;50.780;7.726;2022-08-11T01:46:11;14.20;99.90
11824;DHT22;5969;50.780;7.726;2022-08-11T01:48:42;14.00;99.90
11824;DHT22;5969;50.780;7.726;2022-08-11T01:51:23;14.00;99.90
11824;DHT22;5969;50.780;7.726;2022-08-11T01:54:02;14.00;99.90
11824;DHT22;5969;50.780;7.726;2022-08-11T01:56:37;13.90;99.90
11824;DHT22;5969;50.780;7.726;2022-08-11T01:59:12;13.90;99.90
11824;DHT22;5969;50.780;7.726;2022-08-11T02:01:49;13.80;99.90
11824;DHT22;5969;50.780;7.726;2022-08-11T02:04:30;13.80;99.90
11824;DHT22;5969;50.780;7.726;2022-08-11T02:07:03;13.80;99.90
11824;DHT22;5969;50.780;7.726;2022-08-11T02:10:02;13.80;99.90
11824;DHT22;5969;50.780;7.726;2022-08-11T02:12:53;13.80;99.90
11824;DHT22;5969;50.780;7.726;2022-08-11T02:15:25;13.70;99.90
11824;DHT22;5969;50.780;7.726;2022-08-11T02:18:03;13.60;99.90
11824;DHT22;5969;50.780;7.726;2022-08-11T02:20:35;13.60;99.90
11824;DHT22;5969;50.780;7.726;2022-08-11T02:23:25;13.50;99.90
11824;DHT22;5969;50.780;7.726;2022-08-11T02:26:10;13.50;99.90
11824;DHT22;5969;50.780;7.726;2022-08-11T02:28:50;13.40;99.90
11824;DHT22;5969;50.780;7.726;2022-08-11T02:31:37;13.40;99.90
11824;DHT22;5969;50.780;7.726;2022-08-11T02:34:34;13.30;99.90
11824;DHT22;5969;50.780;7.726;2022-08-11T02:37:13;13.20;99.90
11824;DHT22;5969;50.780;7.726;2022-08-11T02:39:47;13.20;99.90
11824;DHT22;5969;50.780;7.726;2022-08-11T02:42:28;13.20;99.90
11824;DHT22;5969;50.780;7.726;2022-08-11T02:45:27;13.10;99.90
11824;DHT22;5969;50.780;7.726;2022-08-11T02:48:02;13.10;99.90
11824;DHT22;5969;50.780;7.726;2022-08-11T02:50:54;13.10;99.90
11824;DHT22;5969;50.780;7.726;2022-08-11T02:53:27;13.00;99.90
11824;DHT22;5969;50.780;7.726;2022-08-11T02:56:05;13.00;99.90
11824;DHT22;5969;50.780;7.726;2022-08-11T02:58:43;13.00;99.90
11824;DHT22;5969;50.780;7.726;2022-08-11T03:01:41;12.90;99.90
11824;DHT22;5969;50.780;7.726;2022-08-11T03:04:15;12.80;99.90
11824;DHT22;5969;50.780;7.726;2022-08-11T03:06:49;12.70;99.90
11824;DHT22;5969;50.780;7.726;2022-08-11T03:09:21;12.70;99.90
11824;DHT22;5969;50.780;7.726;2022-08-11T03:11:56;12.70;99.90
11824;DHT22;5969;50.780;7.726;2022-08-11T03:14:50;12.70;99.90
11824;DHT22;5969;50.780;7.726;2022-08-11T03:17:40;12.70;99.90
11824;DHT22;5969;50.780;7.726;2022-08-11T03:20:20;12.60;99.90
11824;DHT22;5969;50.780;7.726;2022-08-11T03:22:53;12.50;99.90
11824;DHT22;5969;50.780;7.726;2022-08-11T03:25:28;12.50;99.90
11824;DHT22;5969;50.780;7.726;2022-08-11T03:28:08;12.40;99.90
11824;DHT22;5969;50.780;7.726;2022-08-11T03:30:45;12.40;99.90
11824;DHT22;5969;50.780;7.726;2022-08-11T03:33:22;12.40;99.90
11824;DHT22;5969;50.780;7.726;2022-08-11T03:36:13;12.40;99.90
11824;DHT22;5969;50.780;7.726;2022-08-11T03:38:58;12.30;99.90
11824;DHT22;5969;50.780;7.726;2022-08-11T03:41:33;12.30;99.90
11824;DHT22;5969;50.780;7.726;2022-08-11T03:44:27;12.40;99.90
11824;DHT22;5969;50.780;7.726;2022-08-11T03:47:15;12.30;99.90
11824;DHT22;5969;50.780;7.726;2022-08-11T03:49:56;12.20;99.90
11824;DHT22;5969;50.780;7.726;2022-08-11T03:52:34;12.10;99.90
11824;DHT22;5969;50.780;7.726;2022-08-11T03:55:09;12.10;99.90
11824;DHT22;5969;50.780;7.726;2022-08-11T04:04:13;12.20;99.90
11824;DHT22;5969;50.780;7.726;2022-08-11T04:07:32;12.10;99.90
11824;DHT22;5969;50.780;7.726;2022-08-11T04:16:41;11.90;99.90
11824;DHT22;5969;50.780;7.726;2022-08-11T04:19:46;11.90;99.90
11824;DHT22;5969;50.780;7.726;2022-08-11T04:22:41;12.00;99.90
11824;DHT22;5969;50.780;7.726;2022-08-11T04:25:28;12.00;99.90
11824;DHT22;5969;50.780;7.726;2022-08-11T04:28:41;12.00;99.90
11824;DHT22;5969;50.780;7.726;2022-08-11T04:31:29;12.00;99.90
11824;DHT22;5969;50.780;7.726;2022-08-11T04:34:36;12.00;99.90
11824;DHT22;5969;50.780;7.726;2022-08-11T04:40:17;12.10;99.90
11824;DHT22;5969;50.780;7.726;2022-08-11T04:43:14;12.10;99.90
11824;DHT22;5969;50.780;7.726;2022-08-11T04:46:25;12.20;99.90
11824;DHT22;5969;50.780;7.726;2022-08-11T04:49:18;12.30;99.90
11824;DHT22;5969;50.780;7.726;2022-08-11T04:59:00;12.50;99.90
11824;DHT22;5969;50.780;7.726;2022-08-11T05:02:17;12.60;99.90
11824;DHT22;5969;50.780;7.726;2022-08-11T05:04:58;12.60;99.90
11824;DHT22;5969;50.780;7.726;2022-08-11T05:08:28;12.60;99.90
11824;DHT22;5969;50.780;7.726;2022-08-11T05:11:29;12.60;99.90
11824;DHT22;5969;50.780;7.726;2022-08-11T05:14:25;12.70;99.90
11824;DHT22;5969;50.780;7.726;2022-08-11T05:17:14;12.80;99.90
11824;DHT22;5969;50.780;7.726;2022-08-11T05:19:59;13.00;99.90
11824;DHT22;5969;50.780;7.726;2022-08-11T05:22:47;13.10;99.90
11824;DHT22;5969;50.780;7.726;2022-08-11T05:25:35;13.20;99.90
11824;DHT22;5969;50.780;7.726;2022-08-11T05:28:29;13.30;99.90
11824;DHT22;5969;50.780;7.726;2022-08-11T05:31:15;13.50;99.90
11824;DHT22;5969;50.780;7.726;2022-08-11T05:34:06;13.50;99.90
11824;DHT22;5969;50.780;7.726;2022-08-11T05:36:53;13.60;99.90
11824;DHT22;5969;50.780;7.726;2022-08-11T05:39:23;13.70;99.90
11824;DHT22;5969;50.780;7.726;2022-08-11T05:42:10;13.80;99.90
11824;DHT22;5969;50.780;7.726;2022-08-11T05:45:00;13.90;99.90
11824;DHT22;5969;50.780;7.726;2022-08-11T05:47:47;14.00;99.90
11824;DHT22;5969;50.780;7.726;2022-08-11T05:50:32;14.20;99.90
11824;DHT22;5969;50.780;7.726;2022-08-11T05:53:18;14.30;99.90
11824;DHT22;5969;50.780;7.726;2022-08-11T05:56:04;14.50;99.90
11824;DHT22;5969;50.780;7.726;2022-08-11T05:58:50;14.60;99.90
11824;DHT22;5969;50.780;7.726;2022-08-11T06:01:27;14.80;99.90
11824;DHT22;5969;50.780;7.726;2022-08-11T06:03:57;15.00;99.90
11824;DHT22;5969;50.780;7.726;2022-08-11T06:06:53;15.10;99.90
11824;DHT22;5969;50.780;7.726;2022-08-11T06:09:27;15.30;99.90
11824;DHT22;5969;50.780;7.726;2022-08-11T06:11:57;15.40;99.90
11824;DHT22;5969;50.780;7.726;2022-08-11T06:14:27;15.60;99.90
11824;DHT22;5969;50.780;7.726;2022-08-11T06:16:56;15.80;99.90
11824;DHT22;5969;50.780;7.726;2022-08-11T06:19:32;15.90;99.90
11824;DHT22;5969;50.780;7.726;2022-08-11T06:22:01;16.00;99.90
11824;DHT22;5969;50.780;7.726;2022-08-11T06:24:29;16.10;99.90
11824;DHT22;5969;50.780;7.726;2022-08-11T06:26:57;16.30;99.90
11824;DHT22;5969;50.780;7.726;2022-08-11T06:29:26;16.50;99.90
11824;DHT22;5969;50.780;7.726;2022-08-11T06:31:56;16.50;99.90
11824;DHT22;5969;50.780;7.726;2022-08-11T06:34:48;16.70;99.90
11824;DHT22;5969;50.780;7.726;2022-08-11T06:37:23;16.90;99.90
11824;DHT22;5969;50.780;7.726;2022-08-11T06:40:02;17.20;99.90
11824;DHT22;5969;50.780;7.726;2022-08-11T06:42:39;17.40;99.90
11824;DHT22;5969;50.780;7.726;2022-08-11T06:45:19;17.60;99.90
11824;DHT22;5969;50.780;7.726;2022-08-11T06:47:51;17.80;99.90
11824;DHT22;5969;50.780;7.726;2022-08-11T06:50:20;18.10;99.90
11824;DHT22;5969;50.780;7.726;2022-08-11T06:53:08;18.40;99.90
11824;DHT22;5969;50.780;7.726;2022-08-11T06:55:40;18.60;99.90
11824;DHT22;5969;50.780;7.726;2022-08-11T06:58:27;18.70;99.90
11824;DHT22;5969;50.780;7.726;2022-08-11T07:01:15;19.00;99.90
11824;DHT22;5969;50.780;7.726;2022-08-11T07:03:46;19.30;99.90
11824;DHT22;5969;50.780;7.726;2022-08-11T07:10:09;19.80;99.90
11824;DHT22;5969;50.780;7.726;2022-08-11T07:12:59;20.00;99.90
11824;DHT22;5969;50.780;7.726;2022-08-11T07:15:46;20.40;99.90
11824;DHT22;5969;50.780;7.726;2022-08-11T07:18:20;20.70;99.90
11824;DHT22;5969;50.780;7.726;2022-08-11T07:21:09;21.00;99.90
11824;DHT22;5969;50.780;7.726;2022-08-11T07:23:55;21.30;99.90
11824;DHT22;5969;50.780;7.726;2022-08-11T07:26:44;21.60;99.90
11824;DHT22;5969;50.780;7.726;2022-08-11T07:29:32;21.80;99.90
11824;DHT22;5969;50.780;7.726;2022-08-11T07:32:09;22.00;99.90
11824;DHT22;5969;50.780;7.726;2022-08-11T07:34:41;22.10;99.90
11824;DHT22;5969;50.780;7.726;2022-08-11T07:37:16;22.30;99.90
11824;DHT22;5969;50.780;7.726;2022-08-11T07:39:46;22.50;99.30
11824;DHT22;5969;50.780;7.726;2022-08-11T07:42:15;22.60;99.20
11824;DHT22;5969;50.780;7.726;2022-08-11T07:44:45;22.80;99.10
11824;DHT22;5969;50.780;7.726;2022-08-11T07:47:30;22.90;98.40
11824;DHT22;5969;50.780;7.726;2022-08-11T07:50:16;23.00;98.00
11824;DHT22;5969;50.780;7.726;2022-08-11T07:53:01;23.20;98.00
11824;DHT22;5969;50.780;7.726;2022-08-11T07:55:29;23.40;97.80
11824;DHT22;5969;50.780;7.726;2022-08-11T07:57:57;23.50;96.90
11824;DHT22;5969;50.780;7.726;2022-08-11T08:00:44;23.70;97.00
11824;DHT22;5969;50.780;7.726;2022-08-11T08:03:29;23.80;97.00
11824;DHT22;5969;50.780;7.726;2022-08-11T08:06:16;24.10;96.60
11824;DHT22;5969;50.780;7.726;2022-08-11T08:09:01;24.20;96.40
11824;DHT22;5969;50.780;7.726;2022-08-11T08:11:46;24.40;95.90
11824;DHT22;5969;50.780;7.726;2022-08-11T08:14:31;24.50;96.10
11824;DHT22;5969;50.780;7.726;2022-08-11T08:17:15;24.70;95.80
11824;DHT22;5969;50.780;7.726;2022-08-11T08:20:01;24.80;95.30
11824;DHT22;5969;50.780;7.726;2022-08-11T08:22:29;25.00;95.30
11824;DHT22;5969;50.780;7.726;2022-08-11T08:24:56;25.20;94.70
11824;DHT22;5969;50.780;7.726;2022-08-11T08:27:23;25.30;94.10
11824;DHT22;5969;50.780;7.726;2022-08-11T08:29:51;25.40;94.10
11824;DHT22;5969;50.780;7.726;2022-08-11T08:32:38;25.50;93.40
11824;DHT22;5969;50.780;7.726;2022-08-11T08:35:06;25.50;93.50
11824;DHT22;5969;50.780;7.726;2022-08-11T08:37:37;25.60;93.60
11824;DHT22;5969;50.780;7.726;2022-08-11T08:40:06;25.60;92.30
11824;DHT22;5969;50.780;7.726;2022-08-11T08:42:37;25.70;92.70
11824;DHT22;5969;50.780;7.726;2022-08-11T08:45:07;25.90;92.70
11824;DHT22;5969;50.780;7.726;2022-08-11T08:47:35;26.00;92.10
11824;DHT22;5969;50.780;7.726;2022-08-11T08:50:05;26.10;91.80
11824;DHT22;5969;50.780;7.726;2022-08-11T08:52:36;26.10;91.30
11824;DHT22;5969;50.780;7.726;2022-08-11T08:55:08;26.20;91.50
11824;DHT22;5969;50.780;7.726;2022-08-11T08:57:38;26.30;91.00
11824;DHT22;5969;50.780;7.726;2022-08-11T09:00:07;26.30;91.10
11824;DHT22;5969;50.780;7.726;2022-08-11T09:02:35;26.50;91.00
11824;DHT22;5969;50.780;7.726;2022-08-11T09:05:03;26.60;91.20
11824;DHT22;5969;50.780;7.726;2022-08-11T09:07:31;26.80;88.90
11824;DHT22;5969;50.780;7.726;2022-08-11T09:09:59;26.90;88.60
11824;DHT22;5969;50.780;7.726;2022-08-11T09:12:29;26.90;88.00
11824;DHT22;5969;50.780;7.726;2022-08-11T09:14:57;26.90;88.30
11824;DHT22;5969;50.780;7.726;2022-08-11T09:17:30;26.80;87.50
11824;DHT22;5969;50.780;7.726;2022-08-11T09:19:59;26.90;87.60
11824;DHT22;5969;50.780;7.726;2022-08-11T09:22:29;26.90;87.20
11824;DHT22;5969;50.780;7.726;2022-08-11T09:25:14;27.00;87.00
11824;DHT22;5969;50.780;7.726;2022-08-11T09:28:00;27.00;88.30
11824;DHT22;5969;50.780;7.726;2022-08-11T09:30:29;27.20;88.40
11824;DHT22;5969;50.780;7.726;2022-08-11T09:32:58;27.40;87.60
11824;DHT22;5969;50.780;7.726;2022-08-11T09:35:28;27.70;87.10
11824;DHT22;5969;50.780;7.726;2022-08-11T09:37:56;27.80;85.30
11824;DHT22;5969;50.780;7.726;2022-08-11T09:40:44;27.80;84.70
11824;DHT22;5969;50.780;7.726;2022-08-11T09:43:15;27.80;84.40
11824;DHT22;5969;50.780;7.726;2022-08-11T09:46:01;27.70;83.90
11824;DHT22;5969;50.780;7.726;2022-08-11T09:48:30;27.60;84.40
11824;DHT22;5969;50.780;7.726;2022-08-11T09:51:00;27.70;84.20
11824;DHT22;5969;50.780;7.726;2022-08-11T09:53:31;27.70;84.50
11824;DHT22;5969;50.780;7.726;2022-08-11T09:55:59;27.80;83.50
11824;DHT22;5969;50.780;7.726;2022-08-11T09:58:49;27.60;82.40
11824;DHT22;5969;50.780;7.726;2022-08-11T10:01:16;27.60;82.70
11824;DHT22;5969;50.780;7.726;2022-08-11T10:03:54;27.70;83.30
11824;DHT22;5969;50.780;7.726;2022-08-11T10:06:24;27.70;82.70
11824;DHT22;5969;50.780;7.726;2022-08-11T10:09:08;27.70;83.30
11824;DHT22;5969;50.780;7.726;2022-08-11T10:11:36;27.90;81.90
11824;DHT22;5969;50.780;7.726;2022-08-11T10:14:05;27.70;80.60
11824;DHT22;5969;50.780;7.726;2022-08-11T10:16:50;27.80;81.30
11824;DHT22;5969;50.780;7.726;2022-08-11T10:19:18;27.90;81.20
11824;DHT22;5969;50.780;7.726;2022-08-11T10:21:49;27.70;81.50
11824;DHT22;5969;50.780;7.726;2022-08-11T10:24:36;27.80;82.00
11824;DHT22;5969;50.780;7.726;2022-08-11T10:27:21;27.80;82.30
11824;DHT22;5969;50.780;7.726;2022-08-11T10:29:50;28.00;81.20
11824;DHT22;5969;50.780;7.726;2022-08-11T10:32:49;28.00;82.20
11824;DHT22;5969;50.780;7.726;2022-08-11T10:35:34;27.90;81.70
11824;DHT22;5969;50.780;7.726;2022-08-11T10:38:03;27.80;82.50
11824;DHT22;5969;50.780;7.726;2022-08-11T10:40:30;27.80;82.40
11824;DHT22;5969;50.780;7.726;2022-08-11T10:43:00;27.80;82.80
11824;DHT22;5969;50.780;7.726;2022-08-11T10:45:29;28.00;83.40
11824;DHT22;5969;50.780;7.726;2022-08-11T10:48:15;27.70;81.70
11824;DHT22;5969;50.780;7.726;2022-08-11T10:50:46;27.70;82.70
11824;DHT22;5969;50.780;7.726;2022-08-11T10:53:31;27.70;82.50
11824;DHT22;5969;50.780;7.726;2022-08-11T10:56:16;28.00;82.70
11824;DHT22;5969;50.780;7.726;2022-08-11T10:59:02;27.80;82.30
11824;DHT22;5969;50.780;7.726;2022-08-11T11:01:37;27.80;82.90
11824;DHT22;5969;50.780;7.726;2022-08-11T11:04:06;27.90;82.50
11824;DHT22;5969;50.780;7.726;2022-08-11T11:06:40;28.00;81.90
11824;DHT22;5969;50.780;7.726;2022-08-11T11:09:14;27.90;80.50
11824;DHT22;5969;50.780;7.726;2022-08-11T11:11:46;27.90;80.90
11824;DHT22;5969;50.780;7.726;2022-08-11T11:14:32;28.10;81.70
11824;DHT22;5969;50.780;7.726;2022-08-11T11:17:26;28.10;79.90
11824;DHT22;5969;50.780;7.726;2022-08-11T11:20:15;28.30;79.90
11824;DHT22;5969;50.780;7.726;2022-08-11T11:22:43;28.40;80.70
11824;DHT22;5969;50.780;7.726;2022-08-11T11:25:21;28.70;80.70
11824;DHT22;5969;50.780;7.726;2022-08-11T11:28:03;28.80;80.30
11824;DHT22;5969;50.780;7.726;2022-08-11T11:30:41;28.80;79.70
11824;DHT22;5969;50.780;7.726;2022-08-11T11:33:19;28.80;80.00
11824;DHT22;5969;50.780;7.726;2022-08-11T11:36:00;29.00;79.80
11824;DHT22;5969;50.780;7.726;2022-08-11T11:38:31;29.00;79.20
11824;DHT22;5969;50.780;7.726;2022-08-11T11:40:58;29.20;79.70
11824;DHT22;5969;50.780;7.726;2022-08-11T11:43:43;29.30;77.90
11824;DHT22;5969;50.780;7.726;2022-08-11T11:46:11;29.30;77.60
11824;DHT22;5969;50.780;7.726;2022-08-11T11:48:40;29.40;77.00
11824;DHT22;5969;50.780;7.726;2022-08-11T11:51:08;29.20;78.00
11824;DHT22;5969;50.780;7.726;2022-08-11T11:53:39;29.10;77.30
11824;DHT22;5969;50.780;7.726;2022-08-11T11:56:08;29.00;76.60
11824;DHT22;5969;50.780;7.726;2022-08-11T11:58:36;29.00;77.10
11824;DHT22;5969;50.780;7.726;2022-08-11T12:01:21;29.00;77.70
11824;DHT22;5969;50.780;7.726;2022-08-11T12:03:53;29.30;77.20
11824;DHT22;5969;50.780;7.726;2022-08-11T12:06:21;29.30;76.50
11824;DHT22;5969;50.780;7.726;2022-08-11T12:08:52;29.30;76.80
11824;DHT22;5969;50.780;7.726;2022-08-11T12:11:22;29.30;75.90
11824;DHT22;5969;50.780;7.726;2022-08-11T12:14:08;29.30;76.70
11824;DHT22;5969;50.780;7.726;2022-08-11T12:16:37;29.60;76.30
11824;DHT22;5969;50.780;7.726;2022-08-11T12:19:08;29.60;76.10
11824;DHT22;5969;50.780;7.726;2022-08-11T12:21:38;29.60;75.60
11824;DHT22;5969;50.780;7.726;2022-08-11T12:24:26;29.90;75.00
11824;DHT22;5969;50.780;7.726;2022-08-11T12:27:11;30.10;75.40
11824;DHT22;5969;50.780;7.726;2022-08-11T12:29:49;30.10;74.70
11824;DHT22;5969;50.780;7.726;2022-08-11T12:32:17;30.20;74.30
11824;DHT22;5969;50.780;7.726;2022-08-11T12:34:47;29.80;74.70
11824;DHT22;5969;50.780;7.726;2022-08-11T12:37:16;29.90;75.30
11824;DHT22;5969;50.780;7.726;2022-08-11T12:39:49;30.00;74.70
11824;DHT22;5969;50.780;7.726;2022-08-11T12:42:35;29.70;74.20
11824;DHT22;5969;50.780;7.726;2022-08-11T12:45:24;29.80;74.30
11824;DHT22;5969;50.780;7.726;2022-08-11T12:48:02;29.70;73.10
11824;DHT22;5969;50.780;7.726;2022-08-11T12:50:53;29.40;74.00
11824;DHT22;5969;50.780;7.726;2022-08-11T12:53:43;29.40;73.90
11824;DHT22;5969;50.780;7.726;2022-08-11T12:56:11;29.30;74.30
11824;DHT22;5969;50.780;7.726;2022-08-11T12:58:56;29.50;74.40
11824;DHT22;5969;50.780;7.726;2022-08-11T13:01:42;29.80;74.00
11824;DHT22;5969;50.780;7.726;2022-08-11T13:04:27;30.20;74.80
11824;DHT22;5969;50.780;7.726;2022-08-11T13:07:15;30.50;73.20
11824;DHT22;5969;50.780;7.726;2022-08-11T13:09:43;30.60;73.40
11824;DHT22;5969;50.780;7.726;2022-08-11T13:12:11;30.60;73.50
11824;DHT22;5969;50.780;7.726;2022-08-11T13:14:55;30.60;72.90
11824;DHT22;5969;50.780;7.726;2022-08-11T13:17:23;30.40;72.80
11824;DHT22;5969;50.780;7.726;2022-08-11T13:19:51;30.60;73.30
11824;DHT22;5969;50.780;7.726;2022-08-11T13:22:21;30.70;72.00
11824;DHT22;5969;50.780;7.726;2022-08-11T13:24:50;30.80;72.70
11824;DHT22;5969;50.780;7.726;2022-08-11T13:27:20;31.00;72.40
11824;DHT22;5969;50.780;7.726;2022-08-11T13:29:48;31.00;71.70
11824;DHT22;5969;50.780;7.726;2022-08-11T13:32:19;31.30;71.80
11824;DHT22;5969;50.780;7.726;2022-08-11T13:34:50;31.90;70.90
11824;DHT22;5969;50.780;7.726;2022-08-11T13:37:20;32.90;71.70
11824;DHT22;5969;50.780;7.726;2022-08-11T13:39:47;33.40;70.20
11824;DHT22;5969;50.780;7.726;2022-08-11T13:42:15;34.70;70.50
11824;DHT22;5969;50.780;7.726;2022-08-11T13:44:44;35.50;68.00
11824;DHT22;5969;50.780;7.726;2022-08-11T13:47:12;36.20;67.80
11824;DHT22;5969;50.780;7.726;2022-08-11T13:49:41;36.80;66.40
11824;DHT22;5969;50.780;7.726;2022-08-11T13:52:11;36.00;66.10
11824;DHT22;5969;50.780;7.726;2022-08-11T13:54:41;35.60;66.70
11824;DHT22;5969;50.780;7.726;2022-08-11T13:57:10;35.60;65.40
11824;DHT22;5969;50.780;7.726;2022-08-11T13:59:39;35.70;66.50
11824;DHT22;5969;50.780;7.726;2022-08-11T14:02:12;35.60;67.00
11824;DHT22;5969;50.780;7.726;2022-08-11T14:04:42;36.30;63.40
11824;DHT22;5969;50.780;7.726;2022-08-11T14:07:10;35.90;64.80
11824;DHT22;5969;50.780;7.726;2022-08-11T14:09:42;36.50;66.40
11824;DHT22;5969;50.780;7.726;2022-08-11T14:12:14;37.40;63.30
11824;DHT22;5969;50.780;7.726;2022-08-11T14:15:02;37.50;63.00
11824;DHT22;5969;50.780;7.726;2022-08-11T14:17:33;36.00;62.70
11824;DHT22;5969;50.780;7.726;2022-08-11T14:20:06;35.40;64.70
11824;DHT22;5969;50.780;7.726;2022-08-11T14:22:34;36.00;64.00
11824;DHT22;5969;50.780;7.726;2022-08-11T14:25:05;36.70;64.70
11824;DHT22;5969;50.780;7.726;2022-08-11T14:27:32;37.20;63.50
11824;DHT22;5969;50.780;7.726;2022-08-11T14:29:59;38.10;63.30
11824;DHT22;5969;50.780;7.726;2022-08-11T14:32:27;39.00;60.80
11824;DHT22;5969;50.780;7.726;2022-08-11T14:34:54;39.40;60.40
11824;DHT22;5969;50.780;7.726;2022-08-11T14:37:24;38.90;61.10
11824;DHT22;5969;50.780;7.726;2022-08-11T14:39:56;38.90;60.00
11824;DHT22;5969;50.780;7.726;2022-08-11T14:42:25;38.50;59.70
11824;DHT22;5969;50.780;7.726;2022-08-11T14:45:12;39.30;59.60
11824;DHT22;5969;50.780;7.726;2022-08-11T14:47:57;38.50;59.10
11824;DHT22;5969;50.780;7.726;2022-08-11T14:50:28;38.00;59.90
11824;DHT22;5969;50.780;7.726;2022-08-11T14:52:59;38.30;60.00
11824;DHT22;5969;50.780;7.726;2022-08-11T14:55:27;39.50;58.50
11824;DHT22;5969;50.780;7.726;2022-08-11T14:58:16;38.20;58.80
11824;DHT22;5969;50.780;7.726;2022-08-11T15:00:44;38.90;58.70
11824;DHT22;5969;50.780;7.726;2022-08-11T15:03:13;38.30;60.70
11824;DHT22;5969;50.780;7.726;2022-08-11T15:05:45;39.80;57.90
11824;DHT22;5969;50.780;7.726;2022-08-11T15:08:14;40.30;58.30
11824;DHT22;5969;50.780;7.726;2022-08-11T15:10:41;40.40;58.40
11824;DHT22;5969;50.780;7.726;2022-08-11T15:13:09;40.80;56.90
11824;DHT22;5969;50.780;7.726;2022-08-11T15:15:38;41.50;57.10
11824;DHT22;5969;50.780;7.726;2022-08-11T15:18:24;41.40;56.60
11824;DHT22;5969;50.780;7.726;2022-08-11T15:20:51;41.60;56.90
11824;DHT22;5969;50.780;7.726;2022-08-11T15:23:38;40.40;55.90
11824;DHT22;5969;50.780;7.726;2022-08-11T15:26:27;39.50;56.40
11824;DHT22;5969;50.780;7.726;2022-08-11T15:29:11;40.10;58.90
11824;DHT22;5969;50.780;7.726;2022-08-11T15:31:58;40.50;56.90
11824;DHT22;5969;50.780;7.726;2022-08-11T15:34:45;40.40;56.00
11824;DHT22;5969;50.780;7.726;2022-08-11T15:37:30;39.30;55.80
11824;DHT22;5969;50.780;7.726;2022-08-11T15:40:05;39.00;56.10
11824;DHT22;5969;50.780;7.726;2022-08-11T15:42:57;37.90;58.20
11824;DHT22;5969;50.780;7.726;2022-08-11T15:45:44;37.20;58.10
11824;DHT22;5969;50.780;7.726;2022-08-11T15:48:26;37.30;58.70
11824;DHT22;5969;50.780;7.726;2022-08-11T15:50:57;38.50;59.10
11824;DHT22;5969;50.780;7.726;2022-08-11T15:53:32;39.40;57.20
11824;DHT22;5969;50.780;7.726;2022-08-11T15:56:00;39.60;56.70
11824;DHT22;5969;50.780;7.726;2022-08-11T15:58:33;39.70;57.30
11824;DHT22;5969;50.780;7.726;2022-08-11T16:01:20;40.50;57.40
11824;DHT22;5969;50.780;7.726;2022-08-11T16:04:13;40.00;57.80
11824;DHT22;5969;50.780;7.726;2022-08-11T16:06:59;39.10;57.60
11824;DHT22;5969;50.780;7.726;2022-08-11T16:09:30;39.20;56.80
11824;DHT22;5969;50.780;7.726;2022-08-11T16:12:05;38.10;57.80
11824;DHT22;5969;50.780;7.726;2022-08-11T16:14:36;38.10;58.80
11824;DHT22;5969;50.780;7.726;2022-08-11T16:17:24;38.40;58.30
11824;DHT22;5969;50.780;7.726;2022-08-11T16:19:54;38.70;57.20
11824;DHT22;5969;50.780;7.726;2022-08-11T16:22:23;38.00;57.40
11824;DHT22;5969;50.780;7.726;2022-08-11T16:24:59;38.10;59.10
11824;DHT22;5969;50.780;7.726;2022-08-11T16:27:27;39.20;58.10
11824;DHT22;5969;50.780;7.726;2022-08-11T16:29:59;39.70;56.80
11824;DHT22;5969;50.780;7.726;2022-08-11T16:32:27;39.50;56.70
11824;DHT22;5969;50.780;7.726;2022-08-11T16:35:00;38.30;57.20
11824;DHT22;5969;50.780;7.726;2022-08-11T16:37:46;38.60;58.90
11824;DHT22;5969;50.780;7.726;2022-08-11T16:40:31;39.00;57.90
11824;DHT22;5969;50.780;7.726;2022-08-11T16:43:00;39.90;56.50
11824;DHT22;5969;50.780;7.726;2022-08-11T16:45:47;40.10;55.60
11824;DHT22;5969;50.780;7.726;2022-08-11T16:48:36;39.40;56.90
11824;DHT22;5969;50.780;7.726;2022-08-11T16:51:05;38.60;55.90
11824;DHT22;5969;50.780;7.726;2022-08-11T16:53:32;38.20;58.40
11824;DHT22;5969;50.780;7.726;2022-08-11T16:56:01;38.10;57.70
11824;DHT22;5969;50.780;7.726;2022-08-11T16:58:30;37.70;58.20
11824;DHT22;5969;50.780;7.726;2022-08-11T17:01:20;37.30;58.40
11824;DHT22;5969;50.780;7.726;2022-08-11T17:03:51;36.90;58.20
11824;DHT22;5969;50.780;7.726;2022-08-11T17:06:40;37.10;57.40
11824;DHT22;5969;50.780;7.726;2022-08-11T17:09:35;36.80;57.00
11824;DHT22;5969;50.780;7.726;2022-08-11T17:12:24;36.20;57.90
11824;DHT22;5969;50.780;7.726;2022-08-11T17:15:11;35.40;58.60
11824;DHT22;5969;50.780;7.726;2022-08-11T17:17:57;35.30;58.50
11824;DHT22;5969;50.780;7.726;2022-08-11T17:20:25;35.70;59.20
11824;DHT22;5969;50.780;7.726;2022-08-11T17:22:54;36.30;57.80
11824;DHT22;5969;50.780;7.726;2022-08-11T17:25:39;36.30;57.40
11824;DHT22;5969;50.780;7.726;2022-08-11T17:28:07;36.70;57.70
11824;DHT22;5969;50.780;7.726;2022-08-11T17:30:37;36.80;58.00
11824;DHT22;5969;50.780;7.726;2022-08-11T17:33:23;36.40;58.10
11824;DHT22;5969;50.780;7.726;2022-08-11T17:36:08;36.20;58.50
11824;DHT22;5969;50.780;7.726;2022-08-11T17:38:37;36.20;59.30